Terminal Aerodrome Forecast
Issued by NWS

Home | Current Version | Previous Version | Text Only | Print | Product List | Glossary On
Versions: 1 2 3 4 5 6 7 8 9 10 11 12
216
FTUS41 KPHI 272343
TAFMIV
TAF
KMIV 272343Z 2800/2824 12006KT P6SM SCT250
     FM280100 VRB03KT P6SM SCT250
     FM280600 00000KT P6SM SCT007
      TEMPO 2808/2812 4SM BR SCT007
     FM281400 10006KT P6SM FEW040=

USA.gov is the U.S. government's official web portal to all federal, state and local government web resources and services.